sensor_id;sensor_type;location;lat;lon;timestamp;P1;durP1;ratioP1;P2;durP2;ratioP2
29906;SDS011;16776;50.958;10.994;2023-12-04T00:01:33;10.52;;;5.15;;
29906;SDS011;16776;50.958;10.994;2023-12-04T00:04:00;9.13;;;4.80;;
29906;SDS011;16776;50.958;10.994;2023-12-04T00:06:27;9.35;;;4.40;;
29906;SDS011;16776;50.958;10.994;2023-12-04T00:08:54;7.22;;;4.00;;
29906;SDS011;16776;50.958;10.994;2023-12-04T00:11:20;8.98;;;4.80;;
29906;SDS011;16776;50.958;10.994;2023-12-04T00:13:47;5.93;;;3.88;;
29906;SDS011;16776;50.958;10.994;2023-12-04T00:16:13;6.85;;;3.45;;
29906;SDS011;16776;50.958;10.994;2023-12-04T00:18:41;7.68;;;4.13;;
29906;SDS011;16776;50.958;10.994;2023-12-04T00:21:08;7.18;;;3.47;;
29906;SDS011;16776;50.958;10.994;2023-12-04T00:23:35;7.15;;;3.67;;
29906;SDS011;16776;50.958;10.994;2023-12-04T00:26:01;4.78;;;2.97;;
29906;SDS011;16776;50.958;10.994;2023-12-04T00:28:28;4.40;;;2.30;;
29906;SDS011;16776;50.958;10.994;2023-12-04T00:30:55;5.28;;;2.97;;
29906;SDS011;16776;50.958;10.994;2023-12-04T00:33:21;5.18;;;2.65;;
29906;SDS011;16776;50.958;10.994;2023-12-04T00:35:49;5.60;;;3.00;;
29906;SDS011;16776;50.958;10.994;2023-12-04T00:38:16;4.68;;;2.50;;
29906;SDS011;16776;50.958;10.994;2023-12-04T00:40:42;3.65;;;2.20;;
29906;SDS011;16776;50.958;10.994;2023-12-04T00:43:09;3.60;;;1.95;;
29906;SDS011;16776;50.958;10.994;2023-12-04T00:45:35;3.25;;;1.52;;
29906;SDS011;16776;50.958;10.994;2023-12-04T00:48:02;5.45;;;3.38;;
29906;SDS011;16776;50.958;10.994;2023-12-04T00:50:29;5.43;;;2.90;;
29906;SDS011;16776;50.958;10.994;2023-12-04T00:52:57;6.13;;;2.95;;
29906;SDS011;16776;50.958;10.994;2023-12-04T00:55:23;5.43;;;3.40;;
29906;SDS011;16776;50.958;10.994;2023-12-04T00:57:50;4.20;;;2.35;;
29906;SDS011;16776;50.958;10.994;2023-12-04T01:00:16;5.05;;;2.70;;
29906;SDS011;16776;50.958;10.994;2023-12-04T01:02:43;3.60;;;2.33;;
29906;SDS011;16776;50.958;10.994;2023-12-04T01:05:10;2.85;;;1.92;;
29906;SDS011;16776;50.958;10.994;2023-12-04T01:07:36;4.22;;;2.67;;
29906;SDS011;16776;50.958;10.994;2023-12-04T01:10:05;5.55;;;3.10;;
29906;SDS011;16776;50.958;10.994;2023-12-04T01:12:32;5.22;;;2.72;;
29906;SDS011;16776;50.958;10.994;2023-12-04T01:14:58;6.45;;;3.58;;
29906;SDS011;16776;50.958;10.994;2023-12-04T01:17:25;5.13;;;3.28;;
29906;SDS011;16776;50.958;10.994;2023-12-04T01:19:52;7.55;;;3.55;;
29906;SDS011;16776;50.958;10.994;2023-12-04T01:22:18;5.65;;;2.83;;
29906;SDS011;16776;50.958;10.994;2023-12-04T01:24:45;4.90;;;2.55;;
29906;SDS011;16776;50.958;10.994;2023-12-04T01:27:13;5.72;;;3.20;;
29906;SDS011;16776;50.958;10.994;2023-12-04T01:29:41;6.50;;;3.10;;
29906;SDS011;16776;50.958;10.994;2023-12-04T01:32:07;4.65;;;2.75;;
29906;SDS011;16776;50.958;10.994;2023-12-04T01:34:34;6.53;;;3.40;;
29906;SDS011;16776;50.958;10.994;2023-12-04T01:37:00;6.70;;;3.65;;
29906;SDS011;16776;50.958;10.994;2023-12-04T01:39:27;6.50;;;3.10;;
29906;SDS011;16776;50.958;10.994;2023-12-04T01:41:53;4.45;;;3.25;;
29906;SDS011;16776;50.958;10.994;2023-12-04T01:44:21;5.60;;;2.63;;
29906;SDS011;16776;50.958;10.994;2023-12-04T01:46:48;3.67;;;2.60;;
29906;SDS011;16776;50.958;10.994;2023-12-04T01:49:15;4.82;;;2.80;;
29906;SDS011;16776;50.958;10.994;2023-12-04T01:51:42;5.35;;;3.47;;
29906;SDS011;16776;50.958;10.994;2023-12-04T01:54:09;5.03;;;3.63;;
29906;SDS011;16776;50.958;10.994;2023-12-04T01:56:36;5.25;;;3.15;;
29906;SDS011;16776;50.958;10.994;2023-12-04T01:59:03;5.63;;;3.20;;
29906;SDS011;16776;50.958;10.994;2023-12-04T02:01:31;5.32;;;3.28;;
29906;SDS011;16776;50.958;10.994;2023-12-04T02:03:58;5.50;;;3.42;;
29906;SDS011;16776;50.958;10.994;2023-12-04T02:06:26;4.85;;;3.17;;
29906;SDS011;16776;50.958;10.994;2023-12-04T02:08:53;4.22;;;2.70;;
29906;SDS011;16776;50.958;10.994;2023-12-04T02:11:19;5.45;;;3.22;;
29906;SDS011;16776;50.958;10.994;2023-12-04T02:13:46;4.82;;;2.95;;
29906;SDS011;16776;50.958;10.994;2023-12-04T02:16:13;5.05;;;3.05;;
29906;SDS011;16776;50.958;10.994;2023-12-04T02:18:45;3.78;;;2.67;;
29906;SDS011;16776;50.958;10.994;2023-12-04T02:21:12;5.90;;;3.03;;
29906;SDS011;16776;50.958;10.994;2023-12-04T02:23:39;3.80;;;3.03;;
29906;SDS011;16776;50.958;10.994;2023-12-04T02:26:09;4.32;;;2.47;;
29906;SDS011;16776;50.958;10.994;2023-12-04T02:31:06;5.13;;;2.50;;
29906;SDS011;16776;50.958;10.994;2023-12-04T02:33:34;5.13;;;3.13;;
29906;SDS011;16776;50.958;10.994;2023-12-04T02:36:03;4.30;;;2.60;;
29906;SDS011;16776;50.958;10.994;2023-12-04T02:38:31;4.15;;;3.13;;
29906;SDS011;16776;50.958;10.994;2023-12-04T02:40:58;3.00;;;2.70;;
29906;SDS011;16776;50.958;10.994;2023-12-04T02:43:26;4.53;;;2.92;;
29906;SDS011;16776;50.958;10.994;2023-12-04T02:45:53;4.10;;;2.63;;
29906;SDS011;16776;50.958;10.994;2023-12-04T02:48:19;2.97;;;2.30;;
29906;SDS011;16776;50.958;10.994;2023-12-04T02:50:46;4.55;;;2.70;;
29906;SDS011;16776;50.958;10.994;2023-12-04T02:53:12;4.65;;;3.05;;
29906;SDS011;16776;50.958;10.994;2023-12-04T02:55:39;4.00;;;2.58;;
29906;SDS011;16776;50.958;10.994;2023-12-04T02:58:06;3.50;;;2.25;;
29906;SDS011;16776;50.958;10.994;2023-12-04T03:00:34;5.15;;;2.40;;
29906;SDS011;16776;50.958;10.994;2023-12-04T03:03:00;2.95;;;2.00;;
29906;SDS011;16776;50.958;10.994;2023-12-04T03:05:27;3.53;;;2.20;;
29906;SDS011;16776;50.958;10.994;2023-12-04T03:07:53;3.63;;;2.50;;
29906;SDS011;16776;50.958;10.994;2023-12-04T03:10:20;4.30;;;2.35;;
29906;SDS011;16776;50.958;10.994;2023-12-04T03:12:47;3.80;;;2.28;;
29906;SDS011;16776;50.958;10.994;2023-12-04T03:15:13;3.35;;;2.30;;
29906;SDS011;16776;50.958;10.994;2023-12-04T03:17:41;4.78;;;3.03;;
29906;SDS011;16776;50.958;10.994;2023-12-04T03:20:08;3.97;;;2.22;;
29906;SDS011;16776;50.958;10.994;2023-12-04T03:22:36;3.75;;;2.20;;
29906;SDS011;16776;50.958;10.994;2023-12-04T03:25:03;4.78;;;3.03;;
29906;SDS011;16776;50.958;10.994;2023-12-04T03:27:30;4.65;;;2.50;;
29906;SDS011;16776;50.958;10.994;2023-12-04T03:29:57;2.45;;;1.77;;
29906;SDS011;16776;50.958;10.994;2023-12-04T03:32:24;2.90;;;2.28;;
29906;SDS011;16776;50.958;10.994;2023-12-04T03:34:51;4.50;;;2.70;;
29906;SDS011;16776;50.958;10.994;2023-12-04T03:37:18;4.45;;;2.17;;
29906;SDS011;16776;50.958;10.994;2023-12-04T03:39:45;5.57;;;2.72;;
29906;SDS011;16776;50.958;10.994;2023-12-04T03:42:11;3.90;;;2.35;;
29906;SDS011;16776;50.958;10.994;2023-12-04T03:44:38;2.88;;;2.22;;
29906;SDS011;16776;50.958;10.994;2023-12-04T03:47:04;4.32;;;2.30;;
29906;SDS011;16776;50.958;10.994;2023-12-04T03:49:31;3.90;;;2.45;;
29906;SDS011;16776;50.958;10.994;2023-12-04T03:51:59;4.00;;;2.42;;
29906;SDS011;16776;50.958;10.994;2023-12-04T03:54:25;2.65;;;1.98;;
29906;SDS011;16776;50.958;10.994;2023-12-04T03:56:52;3.92;;;2.40;;
29906;SDS011;16776;50.958;10.994;2023-12-04T03:59:17;2.80;;;1.80;;
29906;SDS011;16776;50.958;10.994;2023-12-04T04:01:44;4.35;;;2.30;;
29906;SDS011;16776;50.958;10.994;2023-12-04T04:04:10;3.15;;;2.17;;
29906;SDS011;16776;50.958;10.994;2023-12-04T04:06:37;2.97;;;2.17;;
29906;SDS011;16776;50.958;10.994;2023-12-04T04:09:05;3.30;;;2.92;;
29906;SDS011;16776;50.958;10.994;2023-12-04T04:11:32;3.20;;;2.28;;
29906;SDS011;16776;50.958;10.994;2023-12-04T04:13:58;4.10;;;2.45;;
29906;SDS011;16776;50.958;10.994;2023-12-04T04:16:25;3.95;;;2.42;;
29906;SDS011;16776;50.958;10.994;2023-12-04T04:18:51;2.50;;;2.00;;
29906;SDS011;16776;50.958;10.994;2023-12-04T04:21:18;3.80;;;2.00;;
29906;SDS011;16776;50.958;10.994;2023-12-04T04:23:44;2.58;;;1.88;;
29906;SDS011;16776;50.958;10.994;2023-12-04T04:26:12;4.95;;;2.60;;
29906;SDS011;16776;50.958;10.994;2023-12-04T04:28:39;4.53;;;2.50;;
29906;SDS011;16776;50.958;10.994;2023-12-04T04:31:06;3.53;;;2.28;;
29906;SDS011;16776;50.958;10.994;2023-12-04T04:33:33;2.95;;;1.77;;
29906;SDS011;16776;50.958;10.994;2023-12-04T04:35:59;2.65;;;1.92;;
29906;SDS011;16776;50.958;10.994;2023-12-04T04:38:26;3.40;;;2.17;;
29906;SDS011;16776;50.958;10.994;2023-12-04T04:40:52;2.88;;;2.08;;
29906;SDS011;16776;50.958;10.994;2023-12-04T04:43:20;3.40;;;2.33;;
29906;SDS011;16776;50.958;10.994;2023-12-04T04:45:47;4.35;;;2.45;;
29906;SDS011;16776;50.958;10.994;2023-12-04T04:48:13;5.30;;;2.42;;
29906;SDS011;16776;50.958;10.994;2023-12-04T04:50:40;3.75;;;2.00;;
29906;SDS011;16776;50.958;10.994;2023-12-04T04:53:06;2.85;;;1.95;;
29906;SDS011;16776;50.958;10.994;2023-12-04T04:55:33;2.50;;;1.85;;
29906;SDS011;16776;50.958;10.994;2023-12-04T04:58:00;4.75;;;2.10;;
29906;SDS011;16776;50.958;10.994;2023-12-04T05:00:28;3.30;;;2.00;;
29906;SDS011;16776;50.958;10.994;2023-12-04T05:02:54;2.92;;;1.80;;
29906;SDS011;16776;50.958;10.994;2023-12-04T05:05:21;2.92;;;1.52;;
29906;SDS011;16776;50.958;10.994;2023-12-04T05:07:47;3.20;;;1.63;;
29906;SDS011;16776;50.958;10.994;2023-12-04T05:10:14;2.97;;;2.05;;
29906;SDS011;16776;50.958;10.994;2023-12-04T05:12:41;2.90;;;1.80;;
29906;SDS011;16776;50.958;10.994;2023-12-04T05:15:07;1.70;;;1.60;;
29906;SDS011;16776;50.958;10.994;2023-12-04T05:17:36;2.35;;;1.52;;
29906;SDS011;16776;50.958;10.994;2023-12-04T05:20:03;2.90;;;1.83;;
29906;SDS011;16776;50.958;10.994;2023-12-04T05:22:30;3.78;;;1.77;;
29906;SDS011;16776;50.958;10.994;2023-12-04T05:24:56;3.08;;;1.90;;
29906;SDS011;16776;50.958;10.994;2023-12-04T05:27:23;2.35;;;1.50;;
29906;SDS011;16776;50.958;10.994;2023-12-04T05:29:49;3.42;;;1.90;;
29906;SDS011;16776;50.958;10.994;2023-12-04T05:32:16;2.03;;;1.77;;
29906;SDS011;16776;50.958;10.994;2023-12-04T05:34:44;2.10;;;1.25;;
29906;SDS011;16776;50.958;10.994;2023-12-04T05:37:11;2.25;;;1.45;;
29906;SDS011;16776;50.958;10.994;2023-12-04T05:39:37;2.00;;;1.80;;
29906;SDS011;16776;50.958;10.994;2023-12-04T05:42:04;2.63;;;1.80;;
29906;SDS011;16776;50.958;10.994;2023-12-04T05:44:31;2.75;;;1.33;;
29906;SDS011;16776;50.958;10.994;2023-12-04T05:46:57;1.98;;;1.20;;
29906;SDS011;16776;50.958;10.994;2023-12-04T05:49:24;1.95;;;1.38;;
29906;SDS011;16776;50.958;10.994;2023-12-04T05:51:52;2.22;;;1.48;;
29906;SDS011;16776;50.958;10.994;2023-12-04T05:54:18;2.00;;;1.20;;
29906;SDS011;16776;50.958;10.994;2023-12-04T05:56:47;2.42;;;1.50;;
29906;SDS011;16776;50.958;10.994;2023-12-04T05:59:13;2.40;;;1.67;;
29906;SDS011;16776;50.958;10.994;2023-12-04T06:01:40;1.75;;;1.20;;
29906;SDS011;16776;50.958;10.994;2023-12-04T06:04:06;1.65;;;1.23;;
29906;SDS011;16776;50.958;10.994;2023-12-04T06:06:33;2.67;;;1.60;;
29906;SDS011;16776;50.958;10.994;2023-12-04T06:09:01;2.35;;;1.40;;
29906;SDS011;16776;50.958;10.994;2023-12-04T06:11:27;3.90;;;1.42;;
29906;SDS011;16776;50.958;10.994;2023-12-04T06:13:54;2.13;;;1.08;;
29906;SDS011;16776;50.958;10.994;2023-12-04T06:16:21;1.55;;;1.00;;
29906;SDS011;16776;50.958;10.994;2023-12-04T06:18:47;3.05;;;1.77;;
29906;SDS011;16776;50.958;10.994;2023-12-04T06:21:14;3.15;;;1.88;;
29906;SDS011;16776;50.958;10.994;2023-12-04T06:23:40;3.33;;;2.00;;
29906;SDS011;16776;50.958;10.994;2023-12-04T06:26:10;2.63;;;1.90;;
29906;SDS011;16776;50.958;10.994;2023-12-04T06:28:38;3.97;;;2.30;;
29906;SDS011;16776;50.958;10.994;2023-12-04T06:31:05;2.47;;;1.60;;
29906;SDS011;16776;50.958;10.994;2023-12-04T06:33:35;3.55;;;1.73;;
29906;SDS011;16776;50.958;10.994;2023-12-04T06:36:02;2.47;;;1.80;;
29906;SDS011;16776;50.958;10.994;2023-12-04T06:38:32;2.95;;;1.85;;
29906;SDS011;16776;50.958;10.994;2023-12-04T06:41:03;3.22;;;1.92;;
29906;SDS011;16776;50.958;10.994;2023-12-04T06:43:31;2.50;;;2.08;;
29906;SDS011;16776;50.958;10.994;2023-12-04T06:45:59;3.03;;;1.90;;
29906;SDS011;16776;50.958;10.994;2023-12-04T06:48:26;2.85;;;1.52;;
29906;SDS011;16776;50.958;10.994;2023-12-04T06:50:53;4.03;;;2.60;;
29906;SDS011;16776;50.958;10.994;2023-12-04T06:53:19;3.38;;;2.22;;
29906;SDS011;16776;50.958;10.994;2023-12-04T06:55:46;2.78;;;1.60;;
29906;SDS011;16776;50.958;10.994;2023-12-04T06:58:12;2.55;;;1.50;;
29906;SDS011;16776;50.958;10.994;2023-12-04T07:00:40;2.47;;;1.80;;
29906;SDS011;16776;50.958;10.994;2023-12-04T07:03:07;2.40;;;1.98;;
29906;SDS011;16776;50.958;10.994;2023-12-04T07:05:33;3.25;;;2.00;;
29906;SDS011;16776;50.958;10.994;2023-12-04T07:08:00;2.95;;;1.73;;
29906;SDS011;16776;50.958;10.994;2023-12-04T07:10:26;3.00;;;1.75;;
29906;SDS011;16776;50.958;10.994;2023-12-04T07:12:53;1.90;;;1.35;;
29906;SDS011;16776;50.958;10.994;2023-12-04T07:15:20;2.95;;;2.00;;
29906;SDS011;16776;50.958;10.994;2023-12-04T07:17:47;2.88;;;1.35;;
29906;SDS011;16776;50.958;10.994;2023-12-04T07:20:14;3.53;;;1.73;;
29906;SDS011;16776;50.958;10.994;2023-12-04T07:22:41;1.92;;;1.50;;
29906;SDS011;16776;50.958;10.994;2023-12-04T07:25:08;2.38;;;1.10;;
29906;SDS011;16776;50.958;10.994;2023-12-04T07:27:34;1.35;;;1.00;;
29906;SDS011;16776;50.958;10.994;2023-12-04T07:30:01;1.90;;;1.40;;
29906;SDS011;16776;50.958;10.994;2023-12-04T07:32:29;2.72;;;1.70;;
29906;SDS011;16776;50.958;10.994;2023-12-04T07:34:59;2.58;;;1.58;;
29906;SDS011;16776;50.958;10.994;2023-12-04T07:37:26;2.00;;;1.42;;
29906;SDS011;16776;50.958;10.994;2023-12-04T07:39:55;2.92;;;1.77;;
29906;SDS011;16776;50.958;10.994;2023-12-04T07:42:21;2.53;;;1.75;;
29906;SDS011;16776;50.958;10.994;2023-12-04T07:44:50;2.72;;;1.58;;
29906;SDS011;16776;50.958;10.994;2023-12-04T07:47:16;1.98;;;1.77;;
29906;SDS011;16776;50.958;10.994;2023-12-04T07:49:44;2.70;;;1.98;;
29906;SDS011;16776;50.958;10.994;2023-12-04T07:52:12;1.55;;;1.20;;
29906;SDS011;16776;50.958;10.994;2023-12-04T07:54:39;1.92;;;1.52;;
29906;SDS011;16776;50.958;10.994;2023-12-04T07:57:05;2.97;;;1.80;;
29906;SDS011;16776;50.958;10.994;2023-12-04T07:59:32;3.08;;;1.73;;
29906;SDS011;16776;50.958;10.994;2023-12-04T08:01:59;3.05;;;1.50;;
29906;SDS011;16776;50.958;10.994;2023-12-04T08:04:26;1.88;;;1.25;;
29906;SDS011;16776;50.958;10.994;2023-12-04T08:06:52;2.85;;;1.60;;
29906;SDS011;16776;50.958;10.994;2023-12-04T08:09:21;2.97;;;1.50;;
29906;SDS011;16776;50.958;10.994;2023-12-04T08:11:47;2.05;;;1.52;;
29906;SDS011;16776;50.958;10.994;2023-12-04T08:14:14;2.90;;;1.45;;
29906;SDS011;16776;50.958;10.994;2023-12-04T08:16:41;1.65;;;1.05;;
29906;SDS011;16776;50.958;10.994;2023-12-04T08:19:08;2.65;;;1.40;;
29906;SDS011;16776;50.958;10.994;2023-12-04T08:21:34;1.67;;;1.27;;
29906;SDS011;16776;50.958;10.994;2023-12-04T08:24:01;2.80;;;1.95;;
29906;SDS011;16776;50.958;10.994;2023-12-04T08:26:29;2.30;;;1.70;;
29906;SDS011;16776;50.958;10.994;2023-12-04T08:28:55;2.70;;;1.42;;
29906;SDS011;16776;50.958;10.994;2023-12-04T08:31:22;1.90;;;1.48;;
29906;SDS011;16776;50.958;10.994;2023-12-04T08:33:48;1.90;;;1.55;;
29906;SDS011;16776;50.958;10.994;2023-12-04T08:36:15;2.70;;;1.73;;
29906;SDS011;16776;50.958;10.994;2023-12-04T08:38:42;2.47;;;1.70;;
29906;SDS011;16776;50.958;10.994;2023-12-04T08:41:08;2.20;;;1.35;;
29906;SDS011;16776;50.958;10.994;2023-12-04T08:43:36;1.77;;;1.20;;
29906;SDS011;16776;50.958;10.994;2023-12-04T08:46:06;1.55;;;1.30;;
29906;SDS011;16776;50.958;10.994;2023-12-04T08:48:33;2.67;;;1.55;;
29906;SDS011;16776;50.958;10.994;2023-12-04T08:51:00;3.10;;;1.90;;
29906;SDS011;16776;50.958;10.994;2023-12-04T08:53:27;2.22;;;1.65;;
29906;SDS011;16776;50.958;10.994;2023-12-04T08:55:53;3.40;;;1.95;;
29906;SDS011;16776;50.958;10.994;2023-12-04T08:58:20;2.78;;;1.77;;
29906;SDS011;16776;50.958;10.994;2023-12-04T09:00:48;2.53;;;1.60;;
29906;SDS011;16776;50.958;10.994;2023-12-04T09:03:14;2.47;;;1.70;;
29906;SDS011;16776;50.958;10.994;2023-12-04T09:05:41;3.17;;;2.03;;
29906;SDS011;16776;50.958;10.994;2023-12-04T09:08:08;3.67;;;1.60;;
29906;SDS011;16776;50.958;10.994;2023-12-04T09:10:35;4.22;;;2.42;;
29906;SDS011;16776;50.958;10.994;2023-12-04T09:13:01;5.03;;;2.88;;
29906;SDS011;16776;50.958;10.994;2023-12-04T09:15:28;6.32;;;3.13;;
29906;SDS011;16776;50.958;10.994;2023-12-04T09:17:56;4.70;;;2.20;;
29906;SDS011;16776;50.958;10.994;2023-12-04T09:20:23;5.10;;;2.60;;
29906;SDS011;16776;50.958;10.994;2023-12-04T09:22:49;7.85;;;2.90;;
29906;SDS011;16776;50.958;10.994;2023-12-04T09:25:16;3.83;;;2.00;;
29906;SDS011;16776;50.958;10.994;2023-12-04T09:27:43;4.93;;;2.70;;
29906;SDS011;16776;50.958;10.994;2023-12-04T09:30:09;5.38;;;2.42;;
29906;SDS011;16776;50.958;10.994;2023-12-04T09:32:36;5.13;;;2.15;;
29906;SDS011;16776;50.958;10.994;2023-12-04T09:35:05;3.00;;;2.00;;
29906;SDS011;16776;50.958;10.994;2023-12-04T09:37:32;2.67;;;1.90;;
29906;SDS011;16776;50.958;10.994;2023-12-04T09:39:58;2.22;;;2.00;;
29906;SDS011;16776;50.958;10.994;2023-12-04T09:42:25;3.78;;;2.05;;
29906;SDS011;16776;50.958;10.994;2023-12-04T09:44:52;2.33;;;1.20;;
29906;SDS011;16776;50.958;10.994;2023-12-04T09:47:20;1.75;;;1.42;;
29906;SDS011;16776;50.958;10.994;2023-12-04T09:49:48;2.35;;;1.65;;
29906;SDS011;16776;50.958;10.994;2023-12-04T09:52:19;2.40;;;1.45;;
29906;SDS011;16776;50.958;10.994;2023-12-04T09:54:46;2.03;;;1.33;;
29906;SDS011;16776;50.958;10.994;2023-12-04T09:57:13;2.75;;;1.38;;
29906;SDS011;16776;50.958;10.994;2023-12-04T09:59:40;2.47;;;1.58;;
29906;SDS011;16776;50.958;10.994;2023-12-04T10:02:10;2.03;;;1.55;;
29906;SDS011;16776;50.958;10.994;2023-12-04T10:04:37;1.83;;;1.40;;
29906;SDS011;16776;50.958;10.994;2023-12-04T10:07:04;1.65;;;1.30;;
29906;SDS011;16776;50.958;10.994;2023-12-04T10:09:32;1.88;;;1.48;;
29906;SDS011;16776;50.958;10.994;2023-12-04T10:11:58;2.88;;;2.03;;
29906;SDS011;16776;50.958;10.994;2023-12-04T10:14:25;1.67;;;1.58;;
29906;SDS011;16776;50.958;10.994;2023-12-04T10:16:52;2.08;;;1.38;;
29906;SDS011;16776;50.958;10.994;2023-12-04T10:19:19;2.17;;;1.88;;
29906;SDS011;16776;50.958;10.994;2023-12-04T10:21:49;2.63;;;1.70;;
29906;SDS011;16776;50.958;10.994;2023-12-04T10:24:29;1.67;;;1.30;;
29906;SDS011;16776;50.958;10.994;2023-12-04T10:26:58;2.03;;;1.60;;
29906;SDS011;16776;50.958;10.994;2023-12-04T10:29:26;2.72;;;1.63;;
29906;SDS011;16776;50.958;10.994;2023-12-04T10:31:55;2.45;;;1.35;;
29906;SDS011;16776;50.958;10.994;2023-12-04T10:34:21;1.27;;;1.15;;
29906;SDS011;16776;50.958;10.994;2023-12-04T10:36:51;1.80;;;1.40;;
29906;SDS011;16776;50.958;10.994;2023-12-04T10:39:18;2.05;;;1.17;;
29906;SDS011;16776;50.958;10.994;2023-12-04T10:41:46;3.08;;;1.20;;
29906;SDS011;16776;50.958;10.994;2023-12-04T10:44:25;1.08;;;0.98;;
29906;SDS011;16776;50.958;10.994;2023-12-04T10:46:53;1.42;;;1.05;;
29906;SDS011;16776;50.958;10.994;2023-12-04T10:49:23;1.30;;;1.20;;
29906;SDS011;16776;50.958;10.994;2023-12-04T10:51:52;2.10;;;1.88;;
29906;SDS011;16776;50.958;10.994;2023-12-04T10:54:21;2.47;;;1.60;;
29906;SDS011;16776;50.958;10.994;2023-12-04T10:56:50;1.63;;;1.20;;
29906;SDS011;16776;50.958;10.994;2023-12-04T10:59:18;1.88;;;1.02;;
29906;SDS011;16776;50.958;10.994;2023-12-04T11:01:51;1.80;;;1.27;;
29906;SDS011;16776;50.958;10.994;2023-12-04T11:04:21;1.52;;;1.08;;
29906;SDS011;16776;50.958;10.994;2023-12-04T11:06:52;1.83;;;1.20;;
29906;SDS011;16776;50.958;10.994;2023-12-04T11:09:20;1.55;;;1.40;;
29906;SDS011;16776;50.958;10.994;2023-12-04T11:11:53;2.97;;;1.75;;
29906;SDS011;16776;50.958;10.994;2023-12-04T11:14:27;1.63;;;1.10;;
29906;SDS011;16776;50.958;10.994;2023-12-04T11:17:01;1.30;;;1.20;;
29906;SDS011;16776;50.958;10.994;2023-12-04T11:19:32;1.83;;;1.23;;
29906;SDS011;16776;50.958;10.994;2023-12-04T11:22:05;1.40;;;1.10;;
29906;SDS011;16776;50.958;10.994;2023-12-04T11:24:34;1.83;;;1.13;;
29906;SDS011;16776;50.958;10.994;2023-12-04T11:27:03;1.55;;;1.17;;
29906;SDS011;16776;50.958;10.994;2023-12-04T11:29:30;1.52;;;0.90;;
29906;SDS011;16776;50.958;10.994;2023-12-04T11:31:58;1.60;;;1.05;;
29906;SDS011;16776;50.958;10.994;2023-12-04T11:34:25;1.13;;;1.02;;
29906;SDS011;16776;50.958;10.994;2023-12-04T11:36:51;1.95;;;0.90;;
29906;SDS011;16776;50.958;10.994;2023-12-04T11:39:18;1.42;;;0.85;;
29906;SDS011;16776;50.958;10.994;2023-12-04T11:41:45;1.00;;;0.75;;
29906;SDS011;16776;50.958;10.994;2023-12-04T11:44:14;1.63;;;1.02;;
29906;SDS011;16776;50.958;10.994;2023-12-04T11:46:54;1.20;;;0.70;;
29906;SDS011;16776;50.958;10.994;2023-12-04T11:49:27;1.58;;;0.63;;
29906;SDS011;16776;50.958;10.994;2023-12-04T11:51:55;0.88;;;0.80;;
29906;SDS011;16776;50.958;10.994;2023-12-04T11:54:22;0.75;;;0.70;;
29906;SDS011;16776;50.958;10.994;2023-12-04T11:56:57;0.95;;;0.73;;
29906;SDS011;16776;50.958;10.994;2023-12-04T11:59:26;1.27;;;0.75;;
29906;SDS011;16776;50.958;10.994;2023-12-04T12:01:53;2.35;;;1.00;;
29906;SDS011;16776;50.958;10.994;2023-12-04T12:04:21;1.10;;;1.00;;
29906;SDS011;16776;50.958;10.994;2023-12-04T12:06:48;1.38;;;1.08;;
29906;SDS011;16776;50.958;10.994;2023-12-04T12:09:15;1.05;;;0.70;;
29906;SDS011;16776;50.958;10.994;2023-12-04T12:11:42;1.17;;;1.08;;
29906;SDS011;16776;50.958;10.994;2023-12-04T12:14:10;1.42;;;1.00;;
29906;SDS011;16776;50.958;10.994;2023-12-04T12:16:38;1.80;;;1.02;;
29906;SDS011;16776;50.958;10.994;2023-12-04T12:19:04;1.25;;;1.08;;
29906;SDS011;16776;50.958;10.994;2023-12-04T12:21:31;1.75;;;1.15;;
29906;SDS011;16776;50.958;10.994;2023-12-04T12:23:57;1.30;;;1.20;;
29906;SDS011;16776;50.958;10.994;2023-12-04T12:26:24;1.35;;;0.93;;
29906;SDS011;16776;50.958;10.994;2023-12-04T12:28:50;1.05;;;0.90;;
29906;SDS011;16776;50.958;10.994;2023-12-04T12:31:17;1.58;;;1.33;;
29906;SDS011;16776;50.958;10.994;2023-12-04T12:33:45;1.35;;;1.00;;
29906;SDS011;16776;50.958;10.994;2023-12-04T12:36:12;1.42;;;1.33;;
29906;SDS011;16776;50.958;10.994;2023-12-04T12:38:39;1.02;;;0.77;;
29906;SDS011;16776;50.958;10.994;2023-12-04T12:41:07;1.35;;;1.05;;
29906;SDS011;16776;50.958;10.994;2023-12-04T12:43:38;1.25;;;1.15;;
29906;SDS011;16776;50.958;10.994;2023-12-04T12:46:05;1.48;;;1.00;;
29906;SDS011;16776;50.958;10.994;2023-12-04T12:48:32;1.52;;;1.10;;
29906;SDS011;16776;50.958;10.994;2023-12-04T12:51:00;1.40;;;1.00;;
29906;SDS011;16776;50.958;10.994;2023-12-04T12:53:28;1.48;;;1.13;;
29906;SDS011;16776;50.958;10.994;2023-12-04T12:55:59;2.55;;;1.83;;
29906;SDS011;16776;50.958;10.994;2023-12-04T12:58:26;1.52;;;1.08;;
29906;SDS011;16776;50.958;10.994;2023-12-04T13:00:53;1.15;;;1.00;;
29906;SDS011;16776;50.958;10.994;2023-12-04T13:03:19;1.45;;;1.15;;
29906;SDS011;16776;50.958;10.994;2023-12-04T13:05:46;1.55;;;1.45;;
29906;SDS011;16776;50.958;10.994;2023-12-04T13:08:14;2.00;;;1.10;;
29906;SDS011;16776;50.958;10.994;2023-12-04T13:10:41;1.88;;;1.60;;
29906;SDS011;16776;50.958;10.994;2023-12-04T13:13:09;1.92;;;1.13;;
29906;SDS011;16776;50.958;10.994;2023-12-04T13:15:35;1.30;;;1.20;;
29906;SDS011;16776;50.958;10.994;2023-12-04T13:18:02;1.83;;;1.30;;
29906;SDS011;16776;50.958;10.994;2023-12-04T13:20:29;1.67;;;1.33;;
29906;SDS011;16776;50.958;10.994;2023-12-04T13:22:56;1.27;;;1.17;;
29906;SDS011;16776;50.958;10.994;2023-12-04T13:25:24;2.42;;;1.38;;
29906;SDS011;16776;50.958;10.994;2023-12-04T13:27:50;2.17;;;1.20;;
29906;SDS011;16776;50.958;10.994;2023-12-04T13:30:17;1.27;;;1.17;;
29906;SDS011;16776;50.958;10.994;2023-12-04T13:32:44;3.03;;;1.40;;
29906;SDS011;16776;50.958;10.994;2023-12-04T13:35:11;0.80;;;0.80;;
29906;SDS011;16776;50.958;10.994;2023-12-04T13:37:39;1.13;;;1.00;;
29906;SDS011;16776;50.958;10.994;2023-12-04T13:40:06;2.03;;;1.25;;
29906;SDS011;16776;50.958;10.994;2023-12-04T13:42:35;1.15;;;1.05;;
29906;SDS011;16776;50.958;10.994;2023-12-04T13:45:19;3.92;;;1.50;;
29906;SDS011;16776;50.958;10.994;2023-12-04T13:47:47;1.50;;;1.23;;
29906;SDS011;16776;50.958;10.994;2023-12-04T13:50:13;1.90;;;1.08;;
29906;SDS011;16776;50.958;10.994;2023-12-04T13:52:40;2.28;;;1.50;;
29906;SDS011;16776;50.958;10.994;2023-12-04T13:55:08;1.73;;;1.15;;
29906;SDS011;16776;50.958;10.994;2023-12-04T13:57:41;1.20;;;0.98;;
29906;SDS011;16776;50.958;10.994;2023-12-04T14:00:23;2.40;;;1.73;;
29906;SDS011;16776;50.958;10.994;2023-12-04T14:02:50;1.95;;;1.33;;
29906;SDS011;16776;50.958;10.994;2023-12-04T14:05:18;1.13;;;1.00;;
29906;SDS011;16776;50.958;10.994;2023-12-04T14:07:46;1.35;;;1.17;;
29906;SDS011;16776;50.958;10.994;2023-12-04T14:10:13;1.17;;;1.00;;
29906;SDS011;16776;50.958;10.994;2023-12-04T14:12:41;1.65;;;1.30;;
29906;SDS011;16776;50.958;10.994;2023-12-04T14:15:10;1.50;;;1.00;;
29906;SDS011;16776;50.958;10.994;2023-12-04T14:17:36;1.10;;;0.98;;
29906;SDS011;16776;50.958;10.994;2023-12-04T14:20:05;2.45;;;1.23;;
29906;SDS011;16776;50.958;10.994;2023-12-04T14:22:37;1.50;;;0.90;;
29906;SDS011;16776;50.958;10.994;2023-12-04T14:25:04;0.90;;;0.90;;
29906;SDS011;16776;50.958;10.994;2023-12-04T14:27:32;1.90;;;1.27;;
29906;SDS011;16776;50.958;10.994;2023-12-04T14:29:59;1.83;;;1.00;;
29906;SDS011;16776;50.958;10.994;2023-12-04T14:32:27;2.08;;;1.30;;
29906;SDS011;16776;50.958;10.994;2023-12-04T14:34:53;1.58;;;1.20;;
29906;SDS011;16776;50.958;10.994;2023-12-04T14:37:20;2.00;;;1.20;;